Weather reports worldwide

Advertisment
Formigueres, France (7737): temperature & dewpoint: 17.10.2019 05:00:00 - 23.10.2019 05:00:00 (CEST)Formigueres, France (7737): wind speed & gusts: 17.10.2019 05:00:00 - 23.10.2019 05:00:00 (CEST)Formigueres, France (7737): wind direction: 17.10.2019 05:00:00 - 23.10.2019 05:00:00 (CEST)Formigueres, France (7737): precipitation: 17.10.2019 05:00:00 - 23.10.2019 05:00:00 (CEST)
Date & Time tt [°C] td [°C] ff [km/h] ff [kn] fx [km/h] fx [kn] dd rr [mm]
23.10.2019 05:00:00 7,4 7,3 8 4 24 13 SSW 0,2
23.10.2019 04:00:00 7,3 7,2 13 7 57 31 WSW 0,2
23.10.2019 03:00:00 6,6 6,3 8 4 24 13 WSW 0,0
23.10.2019 02:00:00 6,3 5,9 15 8 72 39 S -
23.10.2019 01:00:00 12,1 10,0 9 5 41 22 SSE 0,2
23.10.2019 00:00:00 11,5 9,9 8 4 46 25 SSE 0,0
22.10.2019 23:00:00 11,7 9,9 13 7 34 18 SSE 0,0
22.10.2019 22:00:00 11,5 9,6 16 9 52 28 SE 0,0
22.10.2019 21:00:00 11,1 9,2 29 16 48 26 SE 0,0
22.10.2019 20:00:00 11,0 8,9 13 7 41 22 S -
22.10.2019 19:00:00 10,5 8,6 21 11 37 20 SSW 0,0
22.10.2019 18:00:00 9,3 8,4 9 5 29 16 SSW 0,0
22.10.2019 17:00:00 9,1 8,2 9 5 29 16 S 0,0
22.10.2019 16:00:00 9,1 7,7 15 8 48 26 SE 0,0
22.10.2019 15:00:00 10,3 8,4 24 13 50 27 ESE 0,0
22.10.2019 14:00:00 10,0 8,3 18 10 46 25 ESE -
22.10.2019 13:00:00 8,4 8,3 8 4 26 14 E 0,0
22.10.2019 12:00:00 6,4 6,3 5 3 16 9 SW 0,0
22.10.2019 11:00:00 4,7 4,4 4 2 9 5 WNW 0,0
22.10.2019 10:00:00 3,6 3,3 2 1 8 4 W 0,0
22.10.2019 09:00:00 3,2 2,8 2 1 9 5 SSW 0,0
22.10.2019 08:00:00 3,2 2,6 2 1 9 5 SSW -
22.10.2019 07:00:00 2,4 1,5 4 2 11 6 E 0,0
22.10.2019 06:00:00 2,0 1,1 0 0 9 5 N 0,0
22.10.2019 05:00:00 2,0 1,0 2 1 13 7 WSW 0,0
22.10.2019 04:00:00 1,3 0,6 5 3 9 5 SW 0,0
22.10.2019 03:00:00 0,7 -0,2 2 1 11 6 WSW 0,0
22.10.2019 02:00:00 0,8 -0,8 4 2 21 11 WSW -
22.10.2019 01:00:00 0,9 -0,6 4 2 16 9 SSW 0,0
22.10.2019 00:00:00 1,5 -0,3 8 4 18 10 SW 0,0
21.10.2019 23:00:00 2,2 0,6 13 7 18 10 WSW 0,0
21.10.2019 22:00:00 2,8 1,3 5 3 15 8 SW 0,0
21.10.2019 21:00:00 3,3 2,0 4 2 9 5 SSE 0,0
21.10.2019 20:00:00 4,2 1,6 2 1 8 4 WNW -
21.10.2019 19:00:00 6,6 1,3 8 4 22 12 SSW 0,0
21.10.2019 18:00:00 8,7 1,1 15 8 31 17 SSW 0,0
21.10.2019 17:00:00 9,7 2,1 13 7 35 19 SSW 0,0
21.10.2019 16:00:00 10,0 2,1 16 9 35 19 S 0,0
21.10.2019 15:00:00 10,3 2,9 13 7 34 18 SW 0,0
21.10.2019 14:00:00 9,2 2,1 18 10 31 17 S -
21.10.2019 13:00:00 8,2 1,6 16 9 34 18 SSW 0,0
21.10.2019 12:00:00 8,2 4,6 4 2 9 5 S 0,0
21.10.2019 11:00:00 4,1 4,0 0 0 8 4 N 0,0
21.10.2019 10:00:00 2,8 2,7 2 1 8 4 ESE 0,0
21.10.2019 09:00:00 1,2 0,8 0 0 13 7 N 0,0
21.10.2019 08:00:00 1,2 0,8 2 1 13 7 SSW -
21.10.2019 07:00:00 1,3 0,6 5 3 11 6 SSW 0,0
21.10.2019 06:00:00 1,6 0,4 4 2 11 6 WSW 0,0
21.10.2019 05:00:00 2,1 0,3 4 2 15 8 SSW 0,0
21.10.2019 04:00:00 3,0 1,0 8 4 22 12 SSW 0,0
21.10.2019 03:00:00 3,5 1,5 8 4 28 15 S 0,0
21.10.2019 02:00:00 3,0 1,8 8 4 18 10 S -
21.10.2019 01:00:00 3,2 2,2 8 4 18 10 SSW 0,0
21.10.2019 00:00:00 4,3 2,8 11 6 26 14 S 0,0
20.10.2019 23:00:00 4,8 3,0 11 6 22 12 S 0,0
20.10.2019 22:00:00 6,1 3,6 11 6 31 17 SSW 0,0
20.10.2019 21:00:00 6,5 4,0 11 6 21 11 SSW 0,0
20.10.2019 20:00:00 6,4 4,1 11 6 21 11 SSW -
20.10.2019 19:00:00 7,0 4,5 15 8 39 21 S 0,0
20.10.2019 18:00:00 8,3 4,9 24 13 52 28 SSW 0,0
20.10.2019 17:00:00 7,9 5,0 24 13 46 25 SSW 0,0
20.10.2019 16:00:00 7,5 5,6 22 12 61 33 SSW 0,0
20.10.2019 15:00:00 9,6 6,1 18 10 55 30 SSW 0,0
20.10.2019 14:00:00 11,3 7,6 28 15 59 32 SSW -
20.10.2019 13:00:00 10,3 8,1 21 11 42 23 S 0,0
20.10.2019 12:00:00 9,8 6,7 16 9 67 36 S 0,0
20.10.2019 11:00:00 11,8 8,5 26 14 55 30 S 0,0
20.10.2019 10:00:00 10,7 8,8 22 12 44 24 S 0,0
20.10.2019 09:00:00 9,7 8,6 13 7 41 22 S 0,0
20.10.2019 08:00:00 10,7 8,3 21 11 61 33 SSW -
20.10.2019 07:00:00 11,2 7,3 28 15 67 36 SSW 0,0
20.10.2019 06:00:00 10,8 7,5 31 17 59 32 SSW 0,0
20.10.2019 05:00:00 10,3 7,9 26 14 61 33 S 0,0
20.10.2019 04:00:00 10,8 7,1 26 14 54 29 S 0,0
20.10.2019 03:00:00 10,9 7,0 29 16 59 32 S 0,0
20.10.2019 02:00:00 11,0 6,7 24 13 42 23 S -
20.10.2019 01:00:00 11,2 6,9 13 7 39 21 S 0,0
20.10.2019 00:00:00 11,4 6,7 16 9 35 19 S 0,0
19.10.2019 23:00:00 10,9 5,8 11 6 29 16 S 0,4
19.10.2019 22:00:00 7,5 3,5 8 4 16 9 S 0,0
19.10.2019 21:00:00 8,0 2,9 8 4 26 14 SSE 0,0
19.10.2019 20:00:00 11,3 3,1 13 7 35 19 SSW -
19.10.2019 19:00:00 12,6 5,0 16 9 42 23 SSW 0,0
19.10.2019 18:00:00 14,4 4,7 21 11 48 26 SSW 0,0
19.10.2019 17:00:00 15,8 5,1 21 11 54 29 SW 0,0
19.10.2019 16:00:00 16,5 4,2 18 10 57 31 SSW 0,0
19.10.2019 15:00:00 17,2 5,5 22 12 54 29 SSW 0,0
19.10.2019 14:00:00 16,5 5,7 26 14 74 40 SSW -
19.10.2019 13:00:00 15,4 5,0 28 15 57 31 SSW 0,0
19.10.2019 12:00:00 15,2 6,2 22 12 59 32 SSW 0,0
19.10.2019 11:00:00 12,1 6,4 22 12 46 25 S 0,0
19.10.2019 10:00:00 10,5 5,9 13 7 42 23 S 0,0
19.10.2019 09:00:00 10,5 4,8 15 8 39 21 SSE 0,0
19.10.2019 08:00:00 8,7 6,8 13 7 28 15 SSE -
19.10.2019 07:00:00 9,0 6,1 15 8 31 17 SSE 0,0
19.10.2019 06:00:00 8,6 6,4 15 8 28 15 SSE 0,0
19.10.2019 05:00:00 9,0 6,6 15 8 31 17 SSE 0,0
19.10.2019 04:00:00 9,7 6,2 11 6 24 13 SSE 0,0
19.10.2019 03:00:00 9,8 6,5 16 9 37 20 SE 0,0
19.10.2019 02:00:00 10,0 6,5 13 7 29 16 SSE -
19.10.2019 01:00:00 10,6 6,3 22 12 42 23 S 0,0
19.10.2019 00:00:00 10,4 6,2 21 11 42 23 S 0,0
18.10.2019 23:00:00 10,6 6,0 15 8 35 19 S 0,2
18.10.2019 22:00:00 10,0 6,2 15 8 29 16 SSE 0,0
18.10.2019 21:00:00 11,4 5,7 9 5 26 14 SSW 0,0
18.10.2019 20:00:00 10,4 5,6 11 6 24 13 SE -
18.10.2019 19:00:00 12,7 5,1 13 7 44 24 S 0,0
18.10.2019 18:00:00 14,2 5,3 13 7 37 20 S 0,0
18.10.2019 17:00:00 15,3 5,5 21 11 42 23 SSW 0,0
18.10.2019 16:00:00 15,9 6,6 11 6 34 18 S 0,0
18.10.2019 15:00:00 16,0 6,7 15 8 39 21 SSE 0,0
18.10.2019 14:00:00 16,5 6,6 22 12 41 22 SSE -
18.10.2019 13:00:00 15,9 7,4 9 5 24 13 N 0,0
18.10.2019 12:00:00 13,8 6,6 13 7 28 15 SSW 0,0
18.10.2019 11:00:00 11,3 4,5 5 3 11 6 W 0,0
18.10.2019 10:00:00 8,5 2,5 8 4 18 10 WNW 0,0
18.10.2019 09:00:00 6,1 0,8 9 5 26 14 WSW 0,0
18.10.2019 08:00:00 4,8 0,6 11 6 18 10 W -
18.10.2019 07:00:00 4,3 -0,3 16 9 22 12 W 0,0
18.10.2019 06:00:00 3,6 -0,2 16 9 24 13 W 0,0
18.10.2019 05:00:00 2,9 -0,2 16 9 24 13 WSW 0,0
18.10.2019 04:00:00 2,6 0,0 18 10 26 14 W 0,0
18.10.2019 03:00:00 3,3 1,2 15 8 22 12 W 0,0
18.10.2019 02:00:00 4,3 2,3 15 8 24 13 WSW -
18.10.2019 01:00:00 4,7 2,6 11 6 18 10 WSW 0,0
18.10.2019 00:00:00 4,6 2,8 9 5 18 10 WSW 0,0
17.10.2019 23:00:00 5,4 3,6 11 6 21 11 WSW 0,0
17.10.2019 22:00:00 5,2 3,8 5 3 16 9 SW 0,0
17.10.2019 21:00:00 7,2 4,8 9 5 15 8 W 0,0
17.10.2019 20:00:00 8,6 5,5 8 4 16 9 WSW -
17.10.2019 19:00:00 10,2 5,0 9 5 24 13 N 0,0
17.10.2019 18:00:00 13,3 7,1 9 5 31 17 SSE 0,0
17.10.2019 17:00:00 14,6 4,6 21 11 35 19 S 0,0
17.10.2019 16:00:00 15,3 4,3 21 11 39 21 S 0,0
17.10.2019 15:00:00 14,6 2,5 21 11 46 25 S 0,0
17.10.2019 14:00:00 15,3 3,1 22 12 54 29 S -
17.10.2019 13:00:00 15,9 4,3 26 14 48 26 SSE 0,0
17.10.2019 12:00:00 16,9 4,2 21 11 44 24 S 0,0
17.10.2019 11:00:00 14,9 1,7 21 11 42 23 S 0,0
17.10.2019 10:00:00 12,7 3,9 24 13 41 22 SSE 0,0
17.10.2019 09:00:00 10,7 3,9 16 9 39 21 S 0,0
17.10.2019 08:00:00 9,0 3,6 15 8 42 23 SSW -
17.10.2019 07:00:00 7,5 3,5 13 7 29 16 SSW 0,0
17.10.2019 06:00:00 5,6 2,4 11 6 22 12 W 0,0
17.10.2019 05:00:00 5,0 2,4 15 8 24 13 WSW 0,0

tt = temperature
td = dewpoint
ff = wind speed
fx = gusts
dd = wind direction
rr = precipitation

Next stations